createdAt,value
2023-11-20T00:00:15.250Z,2.85
2023-11-20T00:02:44.022Z,2.17
2023-11-20T00:05:11.536Z,2.30
2023-11-20T00:07:38.836Z,2.42
2023-11-20T00:10:06.295Z,1.92
2023-11-20T00:12:33.815Z,1.90
2023-11-20T00:15:01.022Z,1.48
2023-11-20T00:17:28.304Z,2.50
2023-11-20T00:19:55.338Z,1.45
2023-11-20T00:22:22.477Z,1.42
2023-11-20T00:24:49.410Z,1.40
2023-11-20T00:27:16.708Z,1.60
2023-11-20T00:29:44.139Z,1.67
2023-11-20T00:32:11.359Z,1.92
2023-11-20T00:34:40.999Z,1.52
2023-11-20T00:37:07.962Z,1.73
2023-11-20T00:39:35.111Z,1.48
2023-11-20T00:42:02.364Z,1.60
2023-11-20T00:44:29.506Z,1.60
2023-11-20T00:46:56.471Z,1.50
2023-11-20T00:49:23.502Z,1.30
2023-11-20T00:51:50.601Z,1.52
2023-11-20T00:54:17.584Z,2.55
2023-11-20T00:56:44.619Z,1.92
2023-11-20T00:59:11.717Z,2.30
2023-11-20T01:01:39.189Z,1.20
2023-11-20T01:04:06.486Z,1.92
2023-11-20T01:06:40.152Z,1.80
2023-11-20T01:09:07.801Z,2.22
2023-11-20T01:11:35.270Z,2.92
2023-11-20T01:14:02.931Z,1.95
2023-11-20T01:16:30.031Z,2.28
2023-11-20T01:18:57.251Z,1.25
2023-11-20T01:21:24.196Z,2.05
2023-11-20T01:23:51.184Z,1.88
2023-11-20T01:26:18.220Z,1.65
2023-11-20T01:28:45.319Z,1.60
2023-11-20T01:31:12.418Z,1.83
2023-11-20T01:33:40.289Z,2.00
2023-11-20T01:36:07.644Z,1.60
2023-11-20T01:38:34.688Z,1.83
2023-11-20T01:41:01.733Z,2.10
2023-11-20T01:43:28.800Z,1.95
2023-11-20T01:46:04.337Z,1.45
2023-11-20T01:48:32.813Z,1.45
2023-11-20T01:50:59.888Z,1.63
2023-11-20T01:53:29.128Z,1.70
2023-11-20T01:55:56.600Z,1.60
2023-11-20T01:58:26.193Z,1.38
2023-11-20T02:00:54.002Z,1.25
2023-11-20T02:03:21.494Z,2.33
2023-11-20T02:05:48.609Z,1.38
2023-11-20T02:08:15.884Z,1.13
2023-11-20T02:10:42.814Z,1.10
2023-11-20T02:13:10.625Z,2.33
2023-11-20T02:15:38.099Z,1.60
2023-11-20T02:18:05.185Z,1.70
2023-11-20T02:20:32.127Z,1.92
2023-11-20T02:22:59.165Z,1.70
2023-11-20T02:25:26.344Z,2.35
2023-11-20T02:28:03.600Z,2.25
2023-11-20T02:30:31.325Z,2.50
2023-11-20T02:32:58.414Z,2.10
2023-11-20T02:35:25.490Z,3.33
2023-11-20T02:37:55.299Z,1.90
2023-11-20T02:40:22.458Z,2.75
2023-11-20T02:42:49.564Z,2.33
2023-11-20T02:45:16.666Z,2.55
2023-11-20T02:47:44.919Z,2.88
2023-11-20T02:50:11.891Z,2.10
2023-11-20T02:52:38.930Z,2.80
2023-11-20T02:55:08.081Z,2.90
2023-11-20T02:57:35.092Z,2.80
2023-11-20T03:00:01.965Z,2.67
2023-11-20T03:02:28.946Z,2.85
2023-11-20T03:04:58.203Z,3.00
2023-11-20T03:07:25.315Z,2.42
2023-11-20T03:09:53.229Z,2.35
2023-11-20T03:12:20.213Z,2.28
2023-11-20T03:14:47.293Z,2.10
2023-11-20T03:17:14.438Z,2.75
2023-11-20T03:19:41.321Z,1.98
2023-11-20T03:22:09.234Z,2.53
2023-11-20T03:24:36.272Z,3.05
2023-11-20T03:27:03.655Z,2.85
2023-11-20T03:29:31.197Z,2.58
2023-11-20T03:31:58.544Z,2.70
2023-11-20T03:34:25.679Z,3.22
2023-11-20T03:36:52.769Z,3.58
2023-11-20T03:39:19.760Z,3.00
2023-11-20T03:41:47.013Z,3.20
2023-11-20T03:44:13.931Z,1.95
2023-11-20T03:46:40.961Z,2.25
2023-11-20T03:49:07.953Z,2.00
2023-11-20T03:51:35.059Z,2.30
2023-11-20T03:54:02.038Z,2.17
2023-11-20T03:56:29.167Z,2.58
2023-11-20T03:58:56.145Z,2.33
2023-11-20T04:01:23.220Z,2.63
2023-11-20T04:03:50.351Z,1.92
2023-11-20T04:06:17.296Z,2.28
2023-11-20T04:08:44.330Z,3.05
2023-11-20T04:11:11.754Z,2.47
2023-11-20T04:13:38.903Z,2.58
2023-11-20T04:16:07.680Z,2.25
2023-11-20T04:18:35.092Z,3.22
2023-11-20T04:21:04.452Z,2.20
2023-11-20T04:23:32.866Z,2.53
2023-11-20T04:26:00.993Z,3.15
2023-11-20T04:28:29.326Z,2.38
2023-11-20T04:30:56.171Z,2.25
2023-11-20T04:33:23.117Z,2.88
2023-11-20T04:35:51.895Z,2.33
2023-11-20T04:38:19.148Z,2.55
2023-11-20T04:40:49.301Z,3.30
2023-11-20T04:43:16.413Z,4.50
2023-11-20T04:45:43.219Z,2.55
2023-11-20T04:48:12.092Z,2.70
2023-11-20T04:50:38.947Z,4.20
2023-11-20T04:53:06.794Z,2.90
2023-11-20T04:55:33.896Z,3.10
2023-11-20T04:58:01.283Z,2.95
2023-11-20T05:00:28.530Z,2.65
2023-11-20T05:02:55.485Z,2.70
2023-11-20T05:05:23.056Z,4.18
2023-11-20T05:07:50.782Z,2.38
2023-11-20T05:10:17.911Z,2.60
2023-11-20T05:12:45.095Z,2.67
2023-11-20T05:15:12.382Z,2.58
2023-11-20T05:17:39.315Z,3.30
2023-11-20T05:20:07.418Z,1.77
2023-11-20T05:22:34.959Z,2.13
2023-11-20T05:25:02.069Z,2.10
2023-11-20T05:27:29.085Z,1.25
2023-11-20T05:29:55.833Z,3.33
2023-11-20T05:32:22.814Z,2.15
2023-11-20T05:34:49.879Z,2.33
2023-11-20T05:37:16.980Z,1.67
2023-11-20T05:39:45.722Z,5.00
2023-11-20T05:42:13.137Z,1.80
2023-11-20T05:44:40.963Z,2.17
2023-11-20T05:47:07.953Z,1.60
2023-11-20T05:49:34.974Z,2.40
2023-11-20T05:52:02.034Z,1.80
2023-11-20T05:54:29.854Z,2.38
2023-11-20T05:56:56.953Z,2.33
2023-11-20T05:59:23.989Z,2.58
2023-11-20T06:01:51.454Z,1.92
2023-11-20T06:04:18.601Z,2.33
2023-11-20T06:06:45.809Z,1.70
2023-11-20T06:09:13.720Z,2.85
2023-11-20T06:11:44.883Z,2.17
2023-11-20T06:14:12.047Z,2.63
2023-11-20T06:16:39.855Z,2.95
2023-11-20T06:19:08.628Z,2.47
2023-11-20T06:21:35.620Z,2.05
2023-11-20T06:24:02.638Z,2.13
2023-11-20T06:26:29.710Z,2.38
2023-11-20T06:28:56.734Z,2.10
2023-11-20T06:31:23.932Z,3.60
2023-11-20T06:33:50.898Z,2.25
2023-11-20T06:36:18.408Z,1.92
2023-11-20T06:38:45.319Z,2.47
2023-11-20T06:41:13.081Z,1.75
2023-11-20T06:43:40.244Z,2.28
2023-11-20T06:46:07.355Z,3.38
2023-11-20T06:48:35.187Z,2.53
2023-11-20T06:51:02.080Z,1.83
2023-11-20T06:53:29.302Z,2.00
2023-11-20T06:55:56.867Z,2.70
2023-11-20T06:58:23.866Z,2.80
2023-11-20T07:00:50.670Z,3.08
2023-11-20T07:03:21.196Z,2.33
2023-11-20T07:05:48.823Z,2.95
2023-11-20T07:08:17.861Z,2.47
2023-11-20T07:10:45.410Z,4.10
2023-11-20T07:13:12.645Z,2.15
2023-11-20T07:15:39.602Z,2.50
2023-11-20T07:18:09.689Z,2.88
2023-11-20T07:20:36.590Z,1.88
2023-11-20T07:23:05.211Z,3.05
2023-11-20T07:25:34.700Z,2.40
2023-11-20T07:28:02.677Z,2.30
2023-11-20T07:30:31.413Z,2.47
2023-11-20T07:32:58.454Z,2.72
2023-11-20T07:35:25.456Z,2.35
2023-11-20T07:37:52.505Z,2.25
2023-11-20T07:40:19.909Z,2.38
2023-11-20T07:42:47.470Z,2.45
2023-11-20T07:45:14.583Z,2.78
2023-11-20T07:47:41.575Z,2.50
2023-11-20T07:50:11.821Z,2.28
2023-11-20T07:52:38.984Z,2.50
2023-11-20T07:55:08.639Z,2.10
2023-11-20T07:57:35.882Z,2.65
2023-11-20T08:00:05.645Z,2.35
2023-11-20T08:05:00.225Z,3.28
2023-11-20T08:07:27.310Z,4.63
2023-11-20T08:09:54.449Z,2.15
2023-11-20T08:12:21.336Z,3.03
2023-11-20T08:14:48.428Z,1.50
2023-11-20T08:17:18.994Z,2.65
2023-11-20T08:19:46.346Z,2.38
2023-11-20T08:22:13.238Z,2.30
2023-11-20T08:24:40.658Z,2.17
2023-11-20T08:27:08.009Z,2.58
2023-11-20T08:29:35.159Z,2.70
2023-11-20T08:32:02.453Z,3.28
2023-11-20T08:34:29.980Z,2.10
2023-11-20T08:36:57.667Z,2.45
2023-11-20T08:39:33.100Z,2.75
2023-11-20T08:42:00.549Z,2.95
2023-11-20T08:44:28.250Z,2.67
2023-11-20T08:46:55.346Z,3.13
2023-11-20T08:49:22.793Z,2.72
2023-11-20T08:51:56.260Z,2.63
2023-11-20T08:54:29.295Z,2.70
2023-11-20T08:56:56.525Z,2.83
2023-11-20T08:59:23.511Z,2.25
2023-11-20T09:01:50.740Z,2.10
2023-11-20T09:04:17.789Z,2.25
2023-11-20T09:06:44.825Z,2.47
2023-11-20T09:09:12.504Z,1.90
2023-11-20T09:11:39.717Z,1.90
2023-11-20T09:14:08.866Z,2.22
2023-11-20T09:16:35.848Z,1.65
2023-11-20T09:19:02.839Z,2.42
2023-11-20T09:21:29.795Z,2.05
2023-11-20T09:23:56.980Z,1.60
2023-11-20T09:26:23.895Z,1.15
2023-11-20T09:28:50.980Z,1.60
2023-11-20T09:31:19.302Z,1.48
2023-11-20T09:33:47.653Z,1.90
2023-11-20T09:36:14.578Z,2.90
2023-11-20T09:38:41.915Z,2.60
2023-11-20T09:41:11.230Z,2.83
2023-11-20T09:43:39.428Z,2.20
2023-11-20T09:46:08.112Z,2.35
2023-11-20T09:48:37.199Z,2.30
2023-11-20T09:51:12.299Z,2.60
2023-11-20T09:53:40.802Z,3.92
2023-11-20T09:56:11.369Z,2.78
2023-11-20T09:58:39.772Z,2.13
2023-11-20T10:01:08.571Z,2.30
2023-11-20T10:03:40.640Z,2.22
2023-11-20T10:06:15.103Z,2.58
2023-11-20T10:08:45.165Z,2.25
2023-11-20T10:11:21.822Z,1.92
2023-11-20T10:13:48.609Z,2.30
2023-11-20T10:16:23.858Z,1.90
2023-11-20T10:18:53.458Z,2.05
2023-11-20T10:21:21.413Z,2.25
2023-11-20T10:23:53.540Z,2.40
2023-11-20T10:26:25.089Z,2.50
2023-11-20T10:28:55.368Z,2.65
2023-11-20T10:31:25.148Z,2.50
2023-11-20T10:34:09.557Z,3.58
2023-11-20T10:36:37.684Z,3.38
2023-11-20T10:39:05.782Z,2.97
2023-11-20T10:41:33.373Z,2.50
2023-11-20T10:44:00.957Z,2.28
2023-11-20T10:46:28.003Z,3.30
2023-11-20T10:48:56.253Z,3.17
2023-11-20T10:51:26.137Z,2.10
2023-11-20T10:56:38.660Z,4.45
2023-11-20T10:59:07.515Z,2.55
2023-11-20T11:01:36.306Z,2.80
2023-11-20T11:04:04.237Z,2.33
2023-11-20T11:06:33.720Z,2.67
2023-11-20T11:09:03.681Z,3.65
2023-11-20T11:11:32.740Z,2.92
2023-11-20T11:14:00.020Z,3.27
2023-11-20T11:16:32.625Z,3.03
2023-11-20T11:19:13.692Z,2.63
2023-11-20T11:21:57.423Z,3.22
2023-11-20T11:24:32.619Z,2.05
2023-11-20T11:27:18.907Z,2.05
2023-11-20T11:29:51.303Z,2.35
2023-11-20T11:32:31.159Z,3.45
2023-11-20T11:35:18.651Z,3.20
2023-11-20T11:37:56.255Z,2.53
2023-11-20T11:40:44.875Z,2.67
2023-11-20T11:43:36.506Z,2.58
2023-11-20T11:46:05.180Z,1.23
2023-11-20T11:48:35.877Z,2.50
2023-11-20T11:51:04.825Z,2.38
2023-11-20T11:53:32.174Z,2.00
2023-11-20T11:56:14.613Z,2.42
2023-11-20T11:58:41.881Z,1.95
2023-11-20T12:01:21.224Z,2.22
2023-11-20T12:03:48.826Z,2.33
2023-11-20T12:06:16.405Z,2.20
2023-11-20T12:08:46.539Z,2.53
2023-11-20T12:11:33.974Z,1.95
2023-11-20T12:14:10.931Z,2.10
2023-11-20T12:16:38.098Z,1.63
2023-11-20T12:19:07.605Z,2.30
2023-11-20T12:21:34.822Z,2.97
2023-11-20T12:24:02.349Z,2.35
2023-11-20T12:26:29.414Z,2.95
2023-11-20T12:28:57.259Z,3.08
2023-11-20T12:31:25.448Z,2.10
2023-11-20T12:33:52.599Z,2.15
2023-11-20T12:36:25.596Z,2.53
2023-11-20T12:38:57.041Z,3.20
2023-11-20T12:43:55.199Z,2.30
2023-11-20T12:46:22.438Z,2.28
2023-11-20T12:48:49.569Z,1.83
2023-11-20T12:51:17.998Z,3.88
2023-11-20T12:53:45.506Z,1.83
2023-11-20T12:56:13.015Z,1.88
2023-11-20T12:58:43.531Z,1.60
2023-11-20T13:01:12.512Z,1.65
2023-11-20T13:03:39.857Z,2.42
2023-11-20T13:06:11.009Z,2.72
2023-11-20T13:08:40.401Z,2.13
2023-11-20T13:11:09.408Z,1.27
2023-11-20T13:13:38.665Z,1.33
2023-11-20T13:16:19.672Z,1.92
2023-11-20T13:18:52.868Z,1.58
2023-11-20T13:21:29.329Z,1.75
2023-11-20T13:24:06.112Z,1.08
2023-11-20T13:26:33.165Z,1.40
2023-11-20T13:29:00.495Z,1.50
2023-11-20T13:31:35.491Z,1.17
2023-11-20T13:34:06.634Z,1.20
2023-11-20T13:36:35.360Z,1.33
2023-11-20T13:39:04.132Z,1.40
2023-11-20T13:41:31.252Z,2.53
2023-11-20T13:43:58.371Z,3.17
2023-11-20T13:46:33.824Z,3.67
2023-11-20T13:49:01.975Z,3.75
2023-11-20T13:51:29.384Z,3.58
2023-11-20T13:53:56.388Z,5.13
2023-11-20T13:56:24.860Z,7.38
2023-11-20T13:58:52.062Z,5.07
2023-11-20T14:01:19.322Z,3.85
2023-11-20T14:03:47.904Z,9.75
2023-11-20T14:06:16.645Z,2.40
2023-11-20T14:08:43.776Z,1.90
2023-11-20T14:11:10.654Z,2.42
2023-11-20T14:13:38.342Z,2.70
2023-11-20T14:16:06.067Z,2.42
2023-11-20T14:18:34.179Z,2.25
2023-11-20T14:21:01.292Z,3.95
2023-11-20T14:23:28.532Z,4.03
2023-11-20T14:26:14.447Z,10.50
2023-11-20T14:28:42.501Z,4.40
2023-11-20T14:31:09.385Z,3.75
2023-11-20T14:33:36.598Z,3.88
2023-11-20T14:36:05.090Z,3.90
2023-11-20T14:38:33.487Z,2.97
2023-11-20T14:41:00.697Z,4.30
2023-11-20T14:43:27.676Z,3.88
2023-11-20T14:45:55.517Z,4.70
2023-11-20T14:48:23.087Z,3.45
2023-11-20T14:50:50.128Z,2.92
2023-11-20T14:53:17.082Z,4.38
2023-11-20T14:55:44.092Z,4.05
2023-11-20T14:58:11.268Z,4.03
2023-11-20T15:00:40.221Z,3.40
2023-11-20T15:03:07.534Z,2.88
2023-11-20T15:05:34.980Z,2.22
2023-11-20T15:08:03.122Z,2.97
2023-11-20T15:10:30.164Z,3.40
2023-11-20T15:12:58.200Z,2.53
2023-11-20T15:15:25.910Z,2.00
2023-11-20T15:17:54.405Z,2.72
2023-11-20T15:20:23.970Z,2.28
2023-11-20T15:25:42.700Z,2.08
2023-11-20T15:28:10.601Z,2.03
2023-11-20T15:30:37.380Z,2.13
2023-11-20T15:33:05.863Z,2.20
2023-11-20T15:35:32.954Z,2.20
2023-11-20T15:37:59.956Z,2.25
2023-11-20T15:40:27.144Z,2.58
2023-11-20T15:42:54.457Z,2.70
2023-11-20T15:45:21.541Z,2.67
2023-11-20T15:47:48.648Z,2.38
2023-11-20T15:50:15.703Z,2.50
2023-11-20T15:52:44.140Z,4.18
2023-11-20T15:55:11.719Z,3.05
2023-11-20T15:57:38.853Z,2.22
2023-11-20T16:02:41.470Z,3.15
2023-11-20T16:05:12.054Z,2.47
2023-11-20T16:07:40.406Z,2.58
2023-11-20T16:10:07.953Z,3.40
2023-11-20T16:12:34.993Z,3.25
2023-11-20T16:15:04.183Z,2.58
2023-11-20T16:17:31.506Z,2.40
2023-11-20T16:19:58.521Z,3.13
2023-11-20T16:22:25.662Z,2.72
2023-11-20T16:24:52.686Z,3.83
2023-11-20T16:27:20.903Z,3.92
2023-11-20T16:29:48.813Z,4.38
2023-11-20T16:32:15.948Z,3.97
2023-11-20T16:34:42.911Z,3.88
2023-11-20T16:37:09.980Z,4.25
2023-11-20T16:39:37.812Z,3.95
2023-11-20T16:42:05.032Z,4.25
2023-11-20T16:44:31.881Z,3.45
2023-11-20T16:46:59.421Z,3.72
2023-11-20T16:49:26.506Z,4.82
2023-11-20T16:51:53.819Z,3.40
2023-11-20T16:54:22.869Z,3.45
2023-11-20T16:56:49.968Z,4.65
2023-11-20T16:59:17.204Z,4.30
2023-11-20T17:01:46.597Z,5.22
2023-11-20T17:04:13.857Z,7.25
2023-11-20T17:06:41.071Z,6.45
2023-11-20T17:09:08.136Z,4.22
2023-11-20T17:11:35.184Z,5.35
2023-11-20T17:14:02.165Z,7.20
2023-11-20T17:16:31.118Z,6.75
2023-11-20T17:18:58.421Z,5.28
2023-11-20T17:21:25.394Z,5.28
2023-11-20T17:23:52.447Z,6.55
2023-11-20T17:26:19.500Z,6.70
2023-11-20T17:28:48.188Z,7.53
2023-11-20T17:31:17.508Z,7.43
2023-11-20T17:33:46.948Z,8.10
2023-11-20T17:36:16.432Z,10.02
2023-11-20T17:38:43.992Z,10.48
2023-11-20T17:41:11.163Z,11.77
2023-11-20T17:43:38.785Z,14.68
2023-11-20T17:46:09.333Z,17.60
2023-11-20T17:48:36.467Z,17.50
2023-11-20T17:51:04.596Z,19.20
2023-11-20T17:53:31.830Z,17.10
2023-11-20T17:55:59.507Z,16.88
2023-11-20T17:58:26.710Z,16.85
2023-11-20T18:00:53.607Z,15.98
2023-11-20T18:03:20.928Z,16.90
2023-11-20T18:05:49.248Z,16.02
2023-11-20T18:08:16.745Z,15.35
2023-11-20T18:10:43.908Z,15.68
2023-11-20T18:13:11.164Z,16.80
2023-11-20T18:15:38.214Z,17.55
2023-11-20T18:18:05.981Z,17.02
2023-11-20T18:20:33.401Z,18.92
2023-11-20T18:23:01.475Z,18.83
2023-11-20T18:25:29.403Z,19.50
2023-11-20T18:27:57.098Z,21.08
2023-11-20T18:30:25.191Z,18.67
2023-11-20T18:32:52.364Z,22.02
2023-11-20T18:35:19.808Z,20.10
2023-11-20T18:37:47.380Z,20.05
2023-11-20T18:40:15.659Z,20.52
2023-11-20T18:42:45.097Z,19.00
2023-11-20T18:45:16.103Z,20.55
2023-11-20T18:47:46.506Z,20.25
2023-11-20T18:50:13.532Z,20.25
2023-11-20T18:52:40.805Z,20.00
2023-11-20T18:55:08.575Z,20.17
2023-11-20T18:57:35.527Z,17.55
2023-11-20T19:00:02.350Z,19.65
2023-11-20T19:02:29.238Z,19.85
2023-11-20T19:04:56.333Z,22.27
2023-11-20T19:07:23.342Z,23.45
2023-11-20T19:09:50.367Z,22.63
2023-11-20T19:12:18.467Z,22.23
2023-11-20T19:14:45.681Z,23.55
2023-11-20T19:17:13.203Z,22.73
2023-11-20T19:19:40.237Z,22.00
2023-11-20T19:22:07.799Z,22.00
2023-11-20T19:24:35.108Z,18.77
2023-11-20T19:27:02.626Z,18.25
2023-11-20T19:29:29.693Z,40.20
2023-11-20T19:31:56.623Z,23.83
2023-11-20T19:34:23.672Z,20.95
2023-11-20T19:36:50.777Z,19.48
2023-11-20T19:39:17.811Z,21.55
2023-11-20T19:41:45.250Z,20.13
2023-11-20T19:44:12.367Z,18.92
2023-11-20T19:46:39.397Z,19.90
2023-11-20T19:49:06.441Z,19.42
2023-11-20T19:51:33.731Z,19.48
2023-11-20T19:54:01.755Z,20.65
2023-11-20T19:56:28.910Z,21.25
2023-11-20T19:58:57.022Z,20.80
2023-11-20T20:01:24.269Z,19.40
2023-11-20T20:03:52.735Z,18.83
2023-11-20T20:06:21.061Z,18.17
2023-11-20T20:08:48.498Z,17.67
2023-11-20T20:11:19.237Z,19.17
2023-11-20T20:13:46.622Z,17.50
2023-11-20T20:16:14.129Z,18.42
2023-11-20T20:18:42.132Z,17.35
2023-11-20T20:21:10.212Z,17.55
2023-11-20T20:23:37.523Z,18.27
2023-11-20T20:26:04.877Z,19.90
2023-11-20T20:28:33.732Z,20.88
2023-11-20T20:31:00.809Z,19.45
2023-11-20T20:33:29.070Z,19.40
2023-11-20T20:35:56.325Z,17.77
2023-11-20T20:38:23.314Z,15.82
2023-11-20T20:40:50.590Z,19.50
2023-11-20T20:43:17.502Z,18.42
2023-11-20T20:45:45.241Z,19.33
2023-11-20T20:48:12.517Z,17.23
2023-11-20T20:50:39.388Z,17.95
2023-11-20T20:53:07.280Z,17.17
2023-11-20T20:55:35.708Z,17.17
2023-11-20T20:58:04.325Z,16.67
2023-11-20T21:00:34.555Z,16.77
2023-11-20T21:03:01.740Z,17.85
2023-11-20T21:05:29.813Z,17.10
2023-11-20T21:07:58.400Z,16.80
2023-11-20T21:10:27.017Z,15.60
2023-11-20T21:12:55.122Z,16.63
2023-11-20T21:15:22.188Z,15.65
2023-11-20T21:17:49.350Z,15.82
2023-11-20T21:20:16.455Z,17.10
2023-11-20T21:22:44.405Z,17.63
2023-11-20T21:25:12.190Z,17.00
2023-11-20T21:27:40.317Z,16.13
2023-11-20T21:30:07.703Z,16.55
2023-11-20T21:32:36.021Z,16.85
2023-11-20T21:35:05.719Z,19.40
2023-11-20T21:40:00.653Z,15.95
2023-11-20T21:42:27.547Z,16.80
2023-11-20T21:44:54.560Z,16.60
2023-11-20T21:47:21.561Z,18.75
2023-11-20T21:49:48.681Z,17.42
2023-11-20T21:52:15.492Z,19.27
2023-11-20T21:54:42.693Z,20.02
2023-11-20T21:57:10.522Z,20.13
2023-11-20T21:59:37.636Z,18.88
2023-11-20T22:02:05.421Z,19.15
2023-11-20T22:04:32.561Z,21.33
2023-11-20T22:06:59.909Z,19.55
2023-11-20T22:09:27.021Z,19.05
2023-11-20T22:11:55.227Z,18.60
2023-11-20T22:14:22.378Z,19.20
2023-11-20T22:16:49.422Z,19.50
2023-11-20T22:19:16.550Z,19.17
2023-11-20T22:21:43.519Z,19.20
2023-11-20T22:24:10.597Z,20.42
2023-11-20T22:26:37.627Z,20.13
2023-11-20T22:29:05.288Z,19.80
2023-11-20T22:31:33.019Z,19.05
2023-11-20T22:34:01.802Z,19.17
2023-11-20T22:36:29.237Z,18.00
2023-11-20T22:38:59.285Z,18.52
2023-11-20T22:41:26.548Z,20.02
2023-11-20T22:43:53.599Z,20.38
2023-11-20T22:46:20.591Z,19.85
2023-11-20T22:48:47.590Z,19.40
2023-11-20T22:51:14.636Z,20.60
2023-11-20T22:53:41.932Z,19.52
2023-11-20T22:56:10.794Z,18.85
2023-11-20T22:58:37.841Z,21.35
2023-11-20T23:01:06.823Z,20.70
2023-11-20T23:03:34.090Z,21.65
2023-11-20T23:06:01.345Z,19.73
2023-11-20T23:08:28.467Z,20.63
2023-11-20T23:10:56.872Z,20.13
2023-11-20T23:13:24.055Z,19.23
2023-11-20T23:15:51.185Z,19.73
2023-11-20T23:18:18.411Z,20.38
2023-11-20T23:20:46.704Z,19.65
2023-11-20T23:23:13.660Z,20.33
2023-11-20T23:25:41.782Z,19.35
2023-11-20T23:28:10.348Z,21.48
2023-11-20T23:30:37.657Z,20.65
2023-11-20T23:33:05.413Z,19.50
2023-11-20T23:35:32.545Z,20.17
2023-11-20T23:37:59.582Z,20.52
2023-11-20T23:40:26.707Z,20.33
2023-11-20T23:42:53.689Z,20.55
2023-11-20T23:45:20.856Z,20.60
2023-11-20T23:47:47.985Z,22.50
2023-11-20T23:50:16.028Z,22.45
2023-11-20T23:52:43.215Z,22.00
2023-11-20T23:55:12.115Z,21.55
2023-11-20T23:57:39.390Z,23.13
